createdAt,value
2023-02-21T00:01:21.464Z,97781.66
2023-02-21T00:04:07.974Z,97782.38
2023-02-21T00:06:54.056Z,97775.85
2023-02-21T00:09:40.496Z,97775.96
2023-02-21T00:12:26.545Z,97776.21
2023-02-21T00:15:13.047Z,97774.48
2023-02-21T00:17:59.475Z,97772.27
2023-02-21T00:20:45.974Z,97770.44
2023-02-21T00:23:32.440Z,97774.60
2023-02-21T00:26:19.016Z,97787.80
2023-02-21T00:29:06.012Z,97790.17
2023-02-21T00:31:52.261Z,97798.77
2023-02-21T00:34:38.863Z,97783.84
2023-02-21T00:37:25.135Z,97792.36
2023-02-21T00:40:11.739Z,97793.63
2023-02-21T00:42:58.112Z,97785.23
2023-02-21T00:45:44.472Z,97781.31
2023-02-21T00:48:30.831Z,97785.67
2023-02-21T00:51:17.450Z,97777.14
2023-02-21T00:54:04.064Z,97781.11
2023-02-21T00:56:50.691Z,97773.05
2023-02-21T00:59:37.231Z,97767.24
2023-02-21T01:02:23.668Z,97772.24
2023-02-21T01:05:10.639Z,97766.80
2023-02-21T01:07:56.867Z,97762.30
2023-02-21T01:10:43.346Z,97767.57
2023-02-21T01:13:29.857Z,97762.37
2023-02-21T01:16:16.285Z,97760.06
2023-02-21T01:19:02.326Z,97762.39
2023-02-21T01:21:50.664Z,97762.01
2023-02-21T01:24:37.411Z,97755.08
2023-02-21T01:27:24.699Z,97755.53
2023-02-21T01:30:11.349Z,97755.68
2023-02-21T01:32:57.929Z,97749.77
2023-02-21T01:35:44.267Z,97747.32
2023-02-21T01:38:30.790Z,97743.95
2023-02-21T01:41:18.683Z,97739.37
2023-02-21T01:44:18.326Z,97745.54
2023-02-21T01:47:04.757Z,97739.29
2023-02-21T01:49:53.651Z,97734.58
2023-02-21T01:52:40.050Z,97738.77
2023-02-21T01:55:26.639Z,97732.63
2023-02-21T01:58:14.661Z,97732.54
2023-02-21T02:01:01.981Z,97729.04
2023-02-21T02:03:50.075Z,97721.65
2023-02-21T02:06:36.865Z,97717.08
2023-02-21T02:09:38.051Z,97720.39
2023-02-21T02:12:26.274Z,97723.69
2023-02-21T02:15:09.304Z,97724.36
2023-02-21T02:17:54.192Z,97717.93
2023-02-21T02:20:40.708Z,97714.55
2023-02-21T02:23:14.613Z,97712.04
2023-02-21T02:25:51.686Z,97712.98
2023-02-21T02:28:48.277Z,97708.91
2023-02-21T02:32:00.566Z,97708.05
2023-02-21T02:35:10.035Z,97702.79
2023-02-21T02:38:12.104Z,97711.08
2023-02-21T02:40:51.309Z,97707.23
2023-02-21T02:43:32.748Z,97711.80
2023-02-21T02:46:20.258Z,97709.45
2023-02-21T02:49:00.371Z,97709.77
2023-02-21T02:51:29.705Z,97704.15
2023-02-21T02:53:59.864Z,97710.08
2023-02-21T02:56:28.950Z,97709.74
2023-02-21T02:59:25.950Z,97704.83
2023-02-21T03:02:07.106Z,97713.52
2023-02-21T03:04:52.839Z,97711.73
2023-02-21T03:07:40.716Z,97712.49
2023-02-21T03:10:36.316Z,97717.83
2023-02-21T03:13:35.828Z,97716.31
2023-02-21T03:16:16.780Z,97712.55
2023-02-21T03:18:58.048Z,97712.86
2023-02-21T03:21:34.892Z,97710.05
2023-02-21T03:24:05.668Z,97714.98
2023-02-21T03:26:38.759Z,97712.55
2023-02-21T03:29:24.892Z,97711.71
2023-02-21T03:32:10.820Z,97712.28
2023-02-21T03:34:43.707Z,97718.36
2023-02-21T03:37:29.872Z,97714.33
2023-02-21T03:39:57.937Z,97711.10
2023-02-21T03:42:26.053Z,97712.02
2023-02-21T03:44:54.456Z,97709.00
2023-02-21T03:47:23.790Z,97707.36
2023-02-21T03:49:51.662Z,97712.39
2023-02-21T03:52:19.950Z,97716.52
2023-02-21T03:54:48.688Z,97717.55
2023-02-21T03:57:18.676Z,97711.20
2023-02-21T03:59:47.885Z,97709.65
2023-02-21T04:02:16.480Z,97714.85
2023-02-21T04:04:44.761Z,97715.94
2023-02-21T04:07:17.636Z,97716.63
2023-02-21T04:09:45.718Z,97723.41
2023-02-21T04:12:17.223Z,97724.78
2023-02-21T04:14:45.170Z,97724.23
2023-02-21T04:17:13.837Z,97726.45
2023-02-21T04:19:41.818Z,97714.34
2023-02-21T04:22:09.832Z,97719.41
2023-02-21T04:24:37.995Z,97717.34
2023-02-21T04:27:05.862Z,97714.19
2023-02-21T04:29:36.865Z,97716.55
2023-02-21T04:32:05.181Z,97721.73
2023-02-21T04:34:34.396Z,97719.08
2023-02-21T04:37:02.827Z,97724.77
2023-02-21T04:39:30.874Z,97719.22
2023-02-21T04:41:58.862Z,97721.06
2023-02-21T04:44:26.826Z,97717.73
2023-02-21T04:46:54.761Z,97718.63
2023-02-21T04:49:26.167Z,97718.56
2023-02-21T04:51:54.659Z,97714.33
2023-02-21T04:54:22.579Z,97716.23
2023-02-21T04:56:59.540Z,97727.98
2023-02-21T04:59:27.721Z,97724.61
2023-02-21T05:01:55.669Z,97724.84
2023-02-21T05:04:23.614Z,97727.30
2023-02-21T05:06:51.508Z,97727.43
2023-02-21T05:09:19.360Z,97728.25
2023-02-21T05:11:47.234Z,97726.18
2023-02-21T05:14:15.262Z,97728.77
2023-02-21T05:16:43.173Z,97731.42
2023-02-21T05:19:11.249Z,97734.61
2023-02-21T05:21:39.204Z,97733.93
2023-02-21T05:24:07.751Z,97733.42
2023-02-21T05:26:38.540Z,97726.83
2023-02-21T05:29:06.505Z,97720.14
2023-02-21T05:31:34.359Z,97718.98
2023-02-21T05:34:02.323Z,97717.80
2023-02-21T05:36:30.178Z,97726.05
2023-02-21T05:38:58.235Z,97724.67
2023-02-21T05:41:26.438Z,97718.18
2023-02-21T05:43:54.515Z,97715.86
2023-02-21T05:46:31.953Z,97717.66
2023-02-21T05:49:02.196Z,97719.80
2023-02-21T05:51:38.967Z,97726.78
2023-02-21T05:54:08.877Z,97732.77
2023-02-21T05:56:41.446Z,97723.33
2023-02-21T05:59:09.986Z,97725.45
2023-02-21T06:01:37.877Z,97728.66
2023-02-21T06:04:07.707Z,97717.80
2023-02-21T06:06:35.763Z,97712.46
2023-02-21T06:09:04.684Z,97714.24
2023-02-21T06:11:33.903Z,97713.98
2023-02-21T06:14:05.821Z,97719.16
2023-02-21T06:16:38.184Z,97731.85
2023-02-21T06:19:08.684Z,97731.54
2023-02-21T06:21:37.129Z,97735.30
2023-02-21T06:24:05.259Z,97735.69
2023-02-21T06:26:33.209Z,97732.94
2023-02-21T06:29:01.280Z,97733.56
2023-02-21T06:31:29.261Z,97740.47
2023-02-21T06:33:57.334Z,97749.38
2023-02-21T06:36:28.231Z,97757.29
2023-02-21T06:38:57.561Z,97767.25
2023-02-21T06:41:28.788Z,97760.40
2023-02-21T06:43:58.150Z,97762.45
2023-02-21T06:46:30.054Z,97768.58
2023-02-21T06:48:58.908Z,97767.64
2023-02-21T06:51:29.724Z,97766.42
2023-02-21T06:53:58.537Z,97767.91
2023-02-21T06:56:27.338Z,97771.59
2023-02-21T06:58:55.403Z,97768.89
2023-02-21T07:01:25.336Z,97766.77
2023-02-21T07:03:53.372Z,97760.55
2023-02-21T07:06:21.414Z,97768.19
2023-02-21T07:08:49.990Z,97771.67
2023-02-21T07:11:18.931Z,97774.50
2023-02-21T07:13:50.397Z,97768.65
2023-02-21T07:16:19.173Z,97768.56
2023-02-21T07:18:47.413Z,97768.73
2023-02-21T07:21:16.330Z,97765.19
2023-02-21T07:23:44.753Z,97769.54
2023-02-21T07:26:12.807Z,97773.11
2023-02-21T07:28:41.764Z,97777.11
2023-02-21T07:31:11.247Z,97783.21
2023-02-21T07:33:39.284Z,97787.35
2023-02-21T07:36:07.773Z,97792.52
2023-02-21T07:38:35.653Z,97785.36
2023-02-21T07:41:04.052Z,97788.34
2023-02-21T07:43:32.292Z,97790.03
2023-02-21T07:46:00.630Z,97787.02
2023-02-21T07:48:28.572Z,97779.39
2023-02-21T07:50:56.577Z,97782.17
2023-02-21T07:53:24.483Z,97789.00
2023-02-21T07:55:52.388Z,97784.78
2023-02-21T07:58:21.428Z,97779.01
2023-02-21T08:00:49.688Z,97784.58
2023-02-21T08:03:18.075Z,97785.20
2023-02-21T08:05:47.022Z,97786.30
2023-02-21T08:08:17.189Z,97790.73
2023-02-21T08:10:45.168Z,97793.09
2023-02-21T08:13:13.144Z,97793.61
2023-02-21T08:15:41.112Z,97797.45
2023-02-21T08:18:18.846Z,97806.09
2023-02-21T08:20:47.766Z,97803.77
2023-02-21T08:23:15.720Z,97798.80
2023-02-21T08:25:43.638Z,97801.90
2023-02-21T08:28:12.026Z,97810.14
2023-02-21T08:30:40.155Z,97807.67
2023-02-21T08:33:08.360Z,97801.73
2023-02-21T08:35:36.302Z,97803.64
2023-02-21T08:38:05.069Z,97811.03
2023-02-21T08:40:33.149Z,97811.89
2023-02-21T08:43:01.368Z,97814.33
2023-02-21T08:45:30.473Z,97818.66
2023-02-21T08:47:59.464Z,97816.14
2023-02-21T08:50:28.787Z,97814.79
2023-02-21T08:52:57.314Z,97816.10
2023-02-21T08:55:25.616Z,97814.73
2023-02-21T08:57:54.695Z,97817.23
2023-02-21T09:00:24.444Z,97822.34
2023-02-21T09:02:52.734Z,97829.30
2023-02-21T09:05:24.750Z,97832.60
2023-02-21T09:07:59.263Z,97833.10
2023-02-21T09:10:29.541Z,97830.09
2023-02-21T09:12:57.467Z,97831.67
2023-02-21T09:15:25.622Z,97835.59
2023-02-21T09:17:54.767Z,97826.29
2023-02-21T09:20:27.172Z,97826.05
2023-02-21T09:22:55.154Z,97826.23
2023-02-21T09:25:24.954Z,97828.64
2023-02-21T09:27:54.818Z,97839.15
2023-02-21T09:30:26.822Z,97849.73
2023-02-21T09:32:56.199Z,97850.08
2023-02-21T09:35:24.238Z,97857.08
2023-02-21T09:37:52.667Z,97863.21
2023-02-21T09:40:48.030Z,97875.49
2023-02-21T09:43:28.481Z,97875.94
2023-02-21T09:46:00.952Z,97872.34
2023-02-21T09:48:29.737Z,97868.56
2023-02-21T09:51:02.748Z,97867.93
2023-02-21T09:53:39.258Z,97864.30
2023-02-21T09:56:21.526Z,97867.14
2023-02-21T09:58:49.692Z,97870.19
2023-02-21T10:01:58.520Z,97863.15
2023-02-21T10:04:30.514Z,97857.96
2023-02-21T10:07:05.158Z,97870.81
2023-02-21T10:09:37.099Z,97871.95
2023-02-21T10:12:20.921Z,97862.28
2023-02-21T10:15:07.713Z,97854.99
2023-02-21T10:18:03.609Z,97855.38
2023-02-21T10:21:28.445Z,97862.06
2023-02-21T10:24:00.588Z,97857.72
2023-02-21T10:26:29.833Z,97849.27
2023-02-21T10:28:57.833Z,97852.89
2023-02-21T10:31:42.382Z,97860.06
2023-02-21T10:34:23.081Z,97859.91
2023-02-21T10:36:51.914Z,97870.02
2023-02-21T10:39:25.053Z,97870.94
2023-02-21T10:41:54.682Z,97880.02
2023-02-21T10:44:30.539Z,97873.23
2023-02-21T10:47:15.662Z,97880.53
2023-02-21T10:49:50.107Z,97880.65
2023-02-21T10:52:22.868Z,97883.58
2023-02-21T10:55:13.348Z,97889.92
2023-02-21T10:57:50.895Z,97887.80
2023-02-21T11:00:47.790Z,97892.81
2023-02-21T11:03:27.491Z,97882.54
2023-02-21T11:05:58.291Z,97887.63
2023-02-21T11:08:39.265Z,97884.48
2023-02-21T11:11:07.830Z,97890.02
2023-02-21T11:13:36.730Z,97888.16
2023-02-21T11:16:24.930Z,97896.61
2023-02-21T11:19:07.169Z,97887.04
2023-02-21T11:21:35.357Z,97898.63
2023-02-21T11:24:06.436Z,97897.16
2023-02-21T11:26:45.762Z,97889.47
2023-02-21T11:29:18.403Z,97897.58
2023-02-21T11:31:46.473Z,97894.61
2023-02-21T11:34:16.809Z,97900.09
2023-02-21T11:36:47.522Z,97899.02
2023-02-21T11:39:33.348Z,97891.89
2023-02-21T11:42:04.245Z,97890.84
2023-02-21T11:44:43.287Z,97899.36
2023-02-21T11:47:16.699Z,97903.15
2023-02-21T11:49:51.035Z,97901.69
2023-02-21T11:52:26.225Z,97908.76
2023-02-21T11:54:54.199Z,97914.40
2023-02-21T11:57:38.070Z,97912.31
2023-02-21T12:00:19.607Z,97911.11
2023-02-21T12:03:03.322Z,97914.91
2023-02-21T12:05:58.088Z,97908.11
2023-02-21T12:08:44.700Z,97913.88
2023-02-21T12:11:13.361Z,97918.11
2023-02-21T12:14:28.961Z,97913.47
2023-02-21T12:17:08.228Z,97909.77
2023-02-21T12:20:00.894Z,97905.27
2023-02-21T12:22:54.729Z,97900.92
2023-02-21T12:25:43.980Z,97903.82
2023-02-21T12:28:32.013Z,97899.56
2023-02-21T12:31:12.059Z,97900.89
2023-02-21T12:34:01.449Z,97899.45
2023-02-21T12:36:47.643Z,97899.84
2023-02-21T12:39:33.720Z,97898.49
2023-02-21T12:42:28.506Z,97898.98
2023-02-21T12:45:35.957Z,97900.68
2023-02-21T12:48:18.767Z,97902.72
2023-02-21T12:50:57.945Z,97897.04
2023-02-21T12:53:47.492Z,97895.95
2023-02-21T12:56:27.594Z,97892.25
2023-02-21T12:59:14.625Z,97887.40
2023-02-21T13:02:04.647Z,97892.32
2023-02-21T13:04:47.206Z,97890.62
2023-02-21T13:07:26.990Z,97897.53
2023-02-21T13:10:03.604Z,97896.66
2023-02-21T13:12:58.365Z,97902.58
2023-02-21T13:15:30.676Z,97906.71
2023-02-21T13:18:08.655Z,97903.09
2023-02-21T13:20:42.553Z,97902.73
2023-02-21T13:23:41.616Z,97903.09
2023-02-21T13:26:37.131Z,97899.48
2023-02-21T13:29:32.761Z,97899.85
2023-02-21T13:32:12.742Z,97896.36
2023-02-21T13:34:48.085Z,97897.25
2023-02-21T13:37:20.536Z,97899.92
2023-02-21T13:39:55.602Z,97903.31
2023-02-21T13:42:26.672Z,97904.17
2023-02-21T13:45:11.403Z,97908.84
2023-02-21T13:48:05.588Z,97908.52
2023-02-21T13:50:39.658Z,97909.92
2023-02-21T13:53:19.921Z,97913.63
2023-02-21T13:56:00.122Z,97912.86
2023-02-21T13:58:33.005Z,97915.23
2023-02-21T14:01:38.965Z,97909.05
2023-02-21T14:04:51.671Z,97914.80
2023-02-21T14:07:43.974Z,97908.31
2023-02-21T14:10:25.481Z,97897.11
2023-02-21T14:13:01.176Z,97896.87
2023-02-21T14:15:42.760Z,97905.34
2023-02-21T14:18:18.008Z,97912.02
2023-02-21T14:20:50.314Z,97919.40
2023-02-21T14:23:20.249Z,97921.15
2023-02-21T14:26:00.375Z,97915.17
2023-02-21T14:28:59.293Z,97916.80
2023-02-21T14:31:58.379Z,97921.46
2023-02-21T14:34:35.457Z,97920.38
2023-02-21T14:37:13.421Z,97921.48
2023-02-21T14:39:45.023Z,97921.18
2023-02-21T14:42:19.282Z,97923.80
2023-02-21T14:45:11.586Z,97931.28
2023-02-21T14:48:09.049Z,97935.84
2023-02-21T14:50:52.335Z,97941.50
2023-02-21T14:53:31.909Z,97936.71
2023-02-21T14:56:30.920Z,97937.52
2023-02-21T14:59:01.853Z,97938.11
2023-02-21T15:01:47.950Z,97935.08
2023-02-21T15:04:27.969Z,97937.40
2023-02-21T15:07:08.677Z,97941.48
2023-02-21T15:09:36.671Z,97942.27
2023-02-21T15:12:14.349Z,97946.93
2023-02-21T15:14:51.036Z,97947.77
2023-02-21T15:17:25.593Z,97949.15
2023-02-21T15:20:16.082Z,97953.73
2023-02-21T15:22:44.530Z,97949.48
2023-02-21T15:25:17.293Z,97951.33
2023-02-21T15:27:45.170Z,97950.52
2023-02-21T15:30:18.574Z,97954.38
2023-02-21T15:33:02.512Z,97954.48
2023-02-21T15:35:37.636Z,97955.52
2023-02-21T15:38:15.287Z,97951.73
2023-02-21T15:40:43.713Z,97956.09
2023-02-21T15:43:24.420Z,97955.36
2023-02-21T15:45:56.096Z,97959.94
2023-02-21T15:48:24.393Z,97965.34
2023-02-21T15:50:52.563Z,97968.33
2023-02-21T15:53:23.994Z,97969.43
2023-02-21T15:55:53.231Z,97970.45
2023-02-21T15:58:27.216Z,97971.98
2023-02-21T16:01:11.007Z,97975.25
2023-02-21T16:03:44.306Z,97976.18
2023-02-21T16:06:29.143Z,97981.98
2023-02-21T16:09:14.873Z,97981.23
2023-02-21T16:11:45.051Z,97983.64
2023-02-21T16:14:47.463Z,97984.73
2023-02-21T16:17:36.222Z,97992.39
2023-02-21T16:20:20.989Z,97993.64
2023-02-21T16:23:07.278Z,97997.98
2023-02-21T16:25:36.012Z,98003.69
2023-02-21T16:28:12.587Z,98001.70
2023-02-21T16:30:46.622Z,98009.91
2023-02-21T16:33:17.444Z,98008.98
2023-02-21T16:35:45.448Z,98009.28
2023-02-21T16:38:16.849Z,98012.52
2023-02-21T16:40:45.042Z,98013.70
2023-02-21T16:43:24.572Z,98012.66
2023-02-21T16:45:55.881Z,98017.58
2023-02-21T16:48:33.308Z,98016.42
2023-02-21T16:51:07.374Z,98018.84
2023-02-21T16:53:35.277Z,98016.89
2023-02-21T16:56:03.931Z,98018.65
2023-02-21T16:58:41.935Z,98015.74
2023-02-21T17:01:27.949Z,98017.11
2023-02-21T17:03:56.300Z,98022.88
2023-02-21T17:06:25.568Z,98022.94
2023-02-21T17:08:53.478Z,98028.04
2023-02-21T17:11:21.556Z,98031.77
2023-02-21T17:13:49.433Z,98031.35
2023-02-21T17:16:18.084Z,98035.23
2023-02-21T17:18:46.095Z,98035.39
2023-02-21T17:21:14.398Z,98038.23
2023-02-21T17:23:42.542Z,98050.13
2023-02-21T17:26:12.290Z,98058.42
2023-02-21T17:28:40.287Z,98059.04
2023-02-21T17:31:08.288Z,98067.02
2023-02-21T17:33:36.226Z,98069.90
2023-02-21T17:36:04.446Z,98071.77
2023-02-21T17:38:33.610Z,98074.91
2023-02-21T17:41:01.700Z,98077.36
2023-02-21T17:43:29.795Z,98078.41
2023-02-21T17:45:57.706Z,98074.95
2023-02-21T17:48:27.740Z,98080.40
2023-02-21T17:50:55.751Z,98080.85
2023-02-21T17:53:23.683Z,98081.58
2023-02-21T17:55:51.654Z,98087.23
2023-02-21T17:58:19.479Z,98086.13
2023-02-21T18:00:47.900Z,98093.02
2023-02-21T18:03:15.764Z,98088.32
2023-02-21T18:05:43.778Z,98087.65
2023-02-21T18:08:11.687Z,98090.77
2023-02-21T18:10:39.720Z,98097.26
2023-02-21T18:13:07.740Z,98098.30
2023-02-21T18:15:35.984Z,98097.52
2023-02-21T18:18:07.083Z,98104.38
2023-02-21T18:20:35.921Z,98108.96
2023-02-21T18:23:06.577Z,98119.86
2023-02-21T18:25:35.713Z,98123.20
2023-02-21T18:28:04.186Z,98128.33
2023-02-21T18:30:32.109Z,98128.98
2023-02-21T18:33:00.215Z,98130.11
2023-02-21T18:35:28.261Z,98135.27
2023-02-21T18:37:56.289Z,98131.47
2023-02-21T18:40:34.223Z,98136.21
2023-02-21T18:43:02.347Z,98139.14
2023-02-21T18:45:30.483Z,98147.00
2023-02-21T18:48:01.016Z,98149.43
2023-02-21T18:50:28.897Z,98152.75
2023-02-21T18:52:57.165Z,98150.98
2023-02-21T18:55:25.250Z,98152.88
2023-02-21T18:57:53.228Z,98157.19
2023-02-21T19:00:21.345Z,98165.52
2023-02-21T19:02:49.668Z,98169.19
2023-02-21T19:05:22.977Z,98173.75
2023-02-21T19:07:53.275Z,98178.48
2023-02-21T19:10:23.589Z,98189.15
2023-02-21T19:12:51.758Z,98190.02
2023-02-21T19:15:20.891Z,98185.96
2023-02-21T19:17:49.624Z,98196.09
2023-02-21T19:20:19.834Z,98199.08
2023-02-21T19:22:48.177Z,98200.89
2023-02-21T19:25:17.534Z,98205.84
2023-02-21T19:27:45.832Z,98208.77
2023-02-21T19:30:14.575Z,98208.23
2023-02-21T19:32:42.417Z,98214.58
2023-02-21T19:35:10.313Z,98215.68
2023-02-21T19:37:39.175Z,98218.58
2023-02-21T19:40:08.167Z,98219.70
2023-02-21T19:42:36.146Z,98218.09
2023-02-21T19:45:04.423Z,98222.33
2023-02-21T19:47:32.334Z,98218.70
2023-02-21T19:50:00.566Z,98221.83
2023-02-21T19:52:29.106Z,98220.73
2023-02-21T19:54:57.060Z,98226.05
2023-02-21T19:57:24.989Z,98231.06
2023-02-21T19:59:52.874Z,98232.33
2023-02-21T20:02:20.952Z,98234.73
2023-02-21T20:04:49.644Z,98232.77
2023-02-21T20:07:17.985Z,98233.81
2023-02-21T20:09:48.104Z,98232.21
2023-02-21T20:12:18.113Z,98233.09
2023-02-21T20:14:48.707Z,98233.44
2023-02-21T20:17:18.009Z,98235.13
2023-02-21T20:19:46.080Z,98235.52
2023-02-21T20:22:14.150Z,98238.61
2023-02-21T20:24:47.821Z,98240.31
2023-02-21T20:27:16.224Z,98241.80
2023-02-21T20:29:44.123Z,98241.41
2023-02-21T20:32:12.085Z,98243.27
2023-02-21T20:34:40.236Z,98244.42
2023-02-21T20:37:11.147Z,98245.92
2023-02-21T20:39:39.062Z,98247.37
2023-02-21T20:42:07.957Z,98248.02
2023-02-21T20:44:38.385Z,98248.79
2023-02-21T20:47:07.090Z,98251.89
2023-02-21T20:49:35.339Z,98249.59
2023-02-21T20:52:04.501Z,98250.00
2023-02-21T20:54:32.381Z,98246.55
2023-02-21T20:57:00.424Z,98253.16
2023-02-21T20:59:35.397Z,98253.44
2023-02-21T21:02:04.261Z,98257.47
2023-02-21T21:04:42.936Z,98262.33
2023-02-21T21:07:15.445Z,98263.69
2023-02-21T21:09:44.560Z,98267.65
2023-02-21T21:12:15.285Z,98268.50
2023-02-21T21:14:45.246Z,98269.52
2023-02-21T21:17:18.678Z,98270.39
2023-02-21T21:19:49.107Z,98271.20
2023-02-21T21:22:18.616Z,98274.09
2023-02-21T21:24:46.767Z,98275.79
2023-02-21T21:27:15.602Z,98273.83
2023-02-21T21:29:44.272Z,98277.09
2023-02-21T21:32:17.905Z,98277.36
2023-02-21T21:34:47.755Z,98278.31
2023-02-21T21:37:18.518Z,98280.30
2023-02-21T21:39:54.518Z,98277.98
2023-02-21T21:42:27.903Z,98279.46
2023-02-21T21:44:57.118Z,98278.35
2023-02-21T21:47:27.842Z,98278.40
2023-02-21T21:49:55.800Z,98285.14
2023-02-21T21:52:26.608Z,98291.13
2023-02-21T21:54:54.494Z,98291.38
2023-02-21T21:57:22.917Z,98289.70
2023-02-21T21:59:50.822Z,98293.08
2023-02-21T22:02:19.710Z,98299.42
2023-02-21T22:04:48.329Z,98296.13
2023-02-21T22:07:17.579Z,98296.17
2023-02-21T22:09:45.509Z,98296.19
2023-02-21T22:12:17.800Z,98294.38
2023-02-21T22:14:45.728Z,98301.92
2023-02-21T22:17:13.635Z,98304.16
2023-02-21T22:19:41.551Z,98305.90
2023-02-21T22:22:09.473Z,98307.77
2023-02-21T22:24:40.630Z,98308.95
2023-02-21T22:27:09.496Z,98307.65
2023-02-21T22:29:37.306Z,98311.26
2023-02-21T22:32:07.387Z,98314.86
2023-02-21T22:34:35.427Z,98316.77
2023-02-21T22:37:04.089Z,98318.52
2023-02-21T22:39:32.142Z,98318.84
2023-02-21T22:41:59.979Z,98318.82
2023-02-21T22:44:27.805Z,98318.39
2023-02-21T22:46:59.422Z,98315.05
2023-02-21T22:49:27.991Z,98318.34
2023-02-21T22:51:57.779Z,98320.24
2023-02-21T22:54:26.330Z,98323.92
2023-02-21T22:57:00.350Z,98324.22
2023-02-21T22:59:28.248Z,98327.88
2023-02-21T23:01:58.638Z,98330.34
2023-02-21T23:04:27.037Z,98329.68
2023-02-21T23:06:57.928Z,98332.98
2023-02-21T23:09:29.286Z,98332.44
2023-02-21T23:12:00.014Z,98331.80
2023-02-21T23:14:31.669Z,98327.34
2023-02-21T23:16:59.925Z,98333.69
2023-02-21T23:19:29.497Z,98333.83
2023-02-21T23:21:57.985Z,98333.45
2023-02-21T23:24:28.180Z,98330.33
2023-02-21T23:26:56.213Z,98331.38
2023-02-21T23:29:25.949Z,98333.64
2023-02-21T23:31:58.351Z,98333.27
2023-02-21T23:34:40.354Z,98338.46
2023-02-21T23:37:12.411Z,98334.96
2023-02-21T23:39:41.844Z,98341.19
2023-02-21T23:42:11.096Z,98344.41
2023-02-21T23:44:39.317Z,98343.41
2023-02-21T23:47:07.193Z,98343.09
2023-02-21T23:49:35.089Z,98346.40
2023-02-21T23:52:03.021Z,98345.02
2023-02-21T23:54:31.250Z,98347.09
2023-02-21T23:57:00.726Z,98349.31
2023-02-21T23:59:29.187Z,98351.39
